Flight Track Log - Related Links

Times and Time Zones

All times are in EDT time to prevent confusion due to time zone crossing. See the EJA396 flight status page for this flight to view local times or setup timezone preferences in your user account.

Time Position Orientation Groundspeed Altitude Reporting Facility
EDT Latitude Longitude Course Direction KTS MPH feet Rate Location/Type
Mon 03:13:51 PM 33.6167 -111.9333 276° West 177 204 2,600  Level Phoenix TRACON
Mon 03:14:47 PM 33.6208 -111.9808 276° West 213 245 4,400 1,932 Climbing Albuquerque Center
Mon 03:15:49 PM 33.6656 -112.0200 324° Northwest 231 266 6,400 2,634 Climbing Albuquerque Center
Mon 03:16:50 PM 33.7108 -111.9403 56° Northeast 254 292 9,800 3,122 Climbing Albuquerque Center
Mon 03:17:52 PM 33.7317 -111.8469 75° East 298 343 12,800 2,806 Climbing Albuquerque Center
Mon 03:18:54 PM 33.7236 -111.7419 95° East 320 368 15,600 2,565 Climbing Albuquerque Center
Mon 03:19:56 PM 33.7158 -111.6278 95° East 345 397 18,100 2,710 Climbing Albuquerque Center
Mon 03:20:58 PM 33.7044 -111.4836 95° East 363 418 21,200 2,516 Climbing Albuquerque Center
Mon 03:22:00 PM 33.6944 -111.3550 95° East 385 443 23,300 1,984 Climbing Albuquerque Center
Mon 03:23:02 PM 33.7069 -111.2211 84° East 412 474 25,300 1,935 Climbing Albuquerque Center
Mon 03:24:04 PM 33.7511 -111.0933 67° East 416 479 27,300 1,742 Climbing Albuquerque Center
Mon 03:25:06 PM 33.7964 -110.9619 67° East 426 490 28,900 1,548 Climbing Albuquerque Center
Mon 03:26:08 PM 33.8444 -110.8278 67° East 435 501 30,500 1,694 Climbing Albuquerque Center
Mon 03:27:10 PM 33.9000 -110.6661 67° East 439 505 32,400 1,694 Climbing Albuquerque Center
Mon 03:28:12 PM 33.9478 -110.5306 67° East 440 506 34,000 1,452 Climbing Albuquerque Center
Mon 03:29:14 PM 33.9956 -110.3947 67° East 441 507 35,400 1,306 Climbing Albuquerque Center
Mon 03:30:16 PM 34.0411 -110.2675 67° East 442 509 36,700 1,355 Climbing Albuquerque Center
Mon 03:31:18 PM 34.0969 -110.1067 67° East 438 504 38,200 1,452 Climbing Albuquerque Center
Mon 03:32:20 PM 34.1431 -109.9703 68° East 429 494 39,700 1,016 Climbing Albuquerque Center
Mon 03:33:22 PM 34.1861 -109.8472 67° East 421 484 40,300 532 Climbing Albuquerque Center
Mon 03:34:24 PM 34.2369 -109.6992 67° East 425 489 40,800 339 Climbing Albuquerque Center
Mon 03:35:26 PM 34.2806 -109.5678 68° East 433 498 41,000 97 Climbing Albuquerque Center
Mon 03:36:28 PM 34.3342 -109.4122 67° East 443 510 41,000  Level Albuquerque Center
Mon 03:37:30 PM 34.3822 -109.2750 67° East 455 524 41,000  Level Albuquerque Center
Mon 03:38:32 PM 34.4364 -109.1053 69° East 472 543 41,000  Level Albuquerque Center
Mon 03:39:34 PM 34.4772 -108.9581 71° East 478 550 41,000  Level Albuquerque Center
Mon 03:40:36 PM 34.5244 -108.7856 72° East 482 555 41,000  Level Albuquerque Center
Mon 03:41:38 PM 34.5653 -108.6364 72° East 484 557 41,000  Level Albuquerque Center
Mon 03:42:40 PM 34.6119 -108.4597 72° East 489 563 41,000  Level Albuquerque Center
Mon 03:43:42 PM 34.6550 -108.3039 71° East 489 563 41,000  Level Albuquerque Center
Mon 03:44:44 PM 34.6978 -108.1461 72° East 489 563 41,000  Level Albuquerque Center
Mon 03:45:45 PM 34.7378 -107.9900 73° East 487 560 41,000  Level Albuquerque Center
Mon 03:46:47 PM 34.7803 -107.8331 72° East 488 562 41,000  Level Albuquerque Center
Mon 03:47:49 PM 34.8222 -107.6750 72° East 489 563 41,000  Level Albuquerque Center
Mon 03:48:51 PM 34.8639 -107.5167 72° East 492 566 41,000  Level Albuquerque Center
Mon 03:49:53 PM 34.9047 -107.3594 72° East 489 563 41,000  Level Albuquerque Center
Mon 03:50:55 PM 34.9508 -107.1811 72° East 491 565 41,000  Level Albuquerque Center
Mon 03:51:57 PM 34.9972 -107.0031 72° East 493 567 41,000  Level Albuquerque Center
Mon 03:52:59 PM 35.0358 -106.8514 73° East 489 563 41,000  Level Albuquerque Center
Mon 03:54:01 PM 35.0939 -106.6853 67° East 479 551 41,000  Level Albuquerque Center
Mon 03:55:03 PM 35.1519 -106.5331 65° Northeast 485 558 41,000  Level Albuquerque Center
Mon 03:56:05 PM 35.2042 -106.3864 66° East 485 558 41,000  Level Albuquerque Center
Mon 03:57:07 PM 35.2586 -106.2372 66° East 483 556 41,000  Level Albuquerque Center
Mon 03:58:09 PM 35.3161 -106.0794 66° East 482 555 41,000  Level Albuquerque Center
Mon 03:59:11 PM 35.3683 -105.9378 66° East 485 558 41,000  Level Albuquerque Center
Mon 04:00:13 PM 35.4319 -105.7717 65° Northeast 497 572 41,000  Level Albuquerque Center
Mon 04:01:15 PM 35.4942 -105.5944 67° East 486 559 41,000  Level Albuquerque Center
Mon 04:02:17 PM 35.5464 -105.4436 67° East 478 550 41,000  Level Albuquerque Center
Mon 04:03:18 PM 35.6003 -105.2894 67° East 483 556 41,000  Level Albuquerque Center
Mon 04:04:20 PM 35.6578 -105.1322 66° East 493 567 41,000  Level Albuquerque Center
Mon 04:05:22 PM 35.7128 -104.9767 66° East 493 567 41,000  Level Albuquerque Center
Mon 04:06:24 PM 35.7689 -104.8192 66° East 495 570 41,000  Level Albuquerque Center
Mon 04:07:26 PM 35.8247 -104.6606 66° East 497 572 41,000  Level Albuquerque Center
Mon 04:08:28 PM 35.8803 -104.5028 66° East 496 571 41,000  Level Albuquerque Center
Mon 04:09:30 PM 35.9356 -104.3444 67° East 495 570 41,000  Level Albuquerque Center
Mon 04:10:32 PM 35.9908 -104.1861 67° East 496 571 41,000  Level Albuquerque Center
Mon 04:11:34 PM 36.0533 -104.0042 67° East 490 564 41,000  Level Albuquerque Center
Mon 04:12:36 PM 36.1072 -103.8478 67° East 489 563 41,000  Level Albuquerque Center
Mon 04:13:38 PM 36.1611 -103.6958 66° East 481 554 41,000  Level Albuquerque Center
Mon 04:14:40 PM 36.2128 -103.5431 67° East 477 549 41,000  Level Albuquerque Center
Mon 04:15:42 PM 36.2642 -103.3889 68° East 478 550 41,000  Level Albuquerque Center
Mon 04:16:44 PM 36.3158 -103.2350 67° East 480 552 41,000  Level Albuquerque Center
Mon 04:17:46 PM 36.3658 -103.0794 68° East 481 554 41,000  Level Albuquerque Center
Mon 04:18:48 PM 36.4183 -102.9261 67° East 478 550 41,000  Level Albuquerque Center
Mon 04:19:49 PM 36.4697 -102.7686 68° East 478 550 41,000  Level Albuquerque Center
Mon 04:20:51 PM 36.5197 -102.6164 68° East 476 548 41,000  Level Albuquerque Center
Mon 04:21:53 PM 36.5800 -102.4333 68° East 477 549 41,000  Level Albuquerque Center
Mon 04:22:55 PM 36.6289 -102.2789 68° East 478 550 41,000  Level Albuquerque Center
Mon 04:23:57 PM 36.6786 -102.1325 67° East 477 549 41,000  Level Albuquerque Center
Mon 04:24:59 PM 36.7317 -101.9625 69° East 474 545 41,000  Level Albuquerque Center
Mon 04:26:01 PM 36.7778 -101.8172 68° East 471 542 41,000  Level Albuquerque Center
Mon 04:27:03 PM 36.8319 -101.6486 68° East 472 543 41,000  Level Albuquerque Center
Mon 04:28:05 PM 36.8783 -101.5031 68° East 472 543 41,000  Level Albuquerque Center
Mon 04:29:42 PM 36.9542 -101.2589 69° East 473 544 41,000  Level Kansas City Center
Mon 04:30:45 PM 37.0072 -101.0897 69° East 471 542 41,000  Level Kansas City Center
Mon 04:31:46 PM 37.0508 -100.9422 70° East 473 544 41,000  Level Kansas City Center
Mon 04:32:50 PM 37.0908 -100.7631 74° East 480 552 41,000  Level Kansas City Center
Mon 04:33:50 PM 37.1244 -100.6097 75° East 481 554 41,000  Level Kansas City Center
Mon 04:34:54 PM 37.1636 -100.4286 75° East 484 557 41,000  Level Kansas City Center
Mon 04:35:54 PM 37.1972 -100.2753 75° East 482 555 41,000  Level Kansas City Center
Mon 04:36:58 PM 37.2356 -100.0947 75° East 482 555 41,000  Level Kansas City Center
Mon 04:37:59 PM 37.2692 -99.9372 75° East 487 560 41,000  Level Kansas City Center
Mon 04:39:00 PM 37.3086 -99.7544 75° East 487 560 41,000  Level Kansas City Center
Mon 04:40:04 PM 37.3397 -99.5994 76° East 484 557 41,000  Level Kansas City Center
Mon 04:41:05 PM 37.3761 -99.4325 75° East 485 558 41,000  Level Kansas City Center
Mon 04:42:06 PM 37.4131 -99.2694 74° East 486 559 41,000  Level Kansas City Center
Mon 04:43:10 PM 37.4458 -99.1061 76° East 483 556 41,000  Level Kansas City Center
Mon 04:44:10 PM 37.4756 -98.9389 77° East 490 564 41,000  Level Kansas City Center
Mon 04:45:14 PM 37.5161 -98.7411 75° East 487 560 41,000  Level Kansas City Center
Mon 04:46:14 PM 37.5500 -98.5764 75° East 487 560 41,000  Level Kansas City Center
Mon 04:47:18 PM 37.5825 -98.4125 76° East 485 558 41,000  Level Kansas City Center
Mon 04:48:19 PM 37.6167 -98.2500 75° East 483 556 41,000  Level Kansas City Center
Mon 04:49:20 PM 37.6511 -98.0658 77° East 478 550 41,000  Level Kansas City Center
Mon 04:50:24 PM 37.6828 -97.8992 76° East 482 555 41,000  Level Kansas City Center
Mon 04:51:26 PM 37.7156 -97.7322 76° East 487 560 41,000  Level Kansas City Center
Mon 04:52:26 PM 37.7475 -97.5647 76° East 488 562 41,000  Level Kansas City Center
Mon 04:53:30 PM 37.7806 -97.3969 76° East 501 577 41,000  Level Kansas City Center
Mon 04:54:31 PM 37.8108 -97.2283 77° East 496 571 41,000  Level Kansas City Center
Mon 04:55:35 PM 37.8475 -97.0244 77° East 497 572 41,000  Level Kansas City Center
Mon 04:56:35 PM 37.8781 -96.8536 77° East 498 573 41,000  Level Kansas City Center
Mon 04:57:37 PM 37.9083 -96.6825 77° East 500 575 41,000  Level Kansas City Center
Mon 04:58:40 PM 37.9375 -96.5122 78° East 496 571 41,000  Level Kansas City Center
Mon 04:59:41 PM 37.9664 -96.3386 78° East 503 579 41,000  Level Kansas City Center
Mon 05:00:42 PM 37.9936 -96.1681 79° East 497 572 41,000  Level Kansas City Center
Mon 05:01:47 PM 38.0272 -95.9675 78° East 493 567 41,000  Level Kansas City Center
Mon 05:02:47 PM 38.0542 -95.8053 78° East 494 568 41,000  Level Kansas City Center
Mon 05:03:51 PM 38.0875 -95.6169 77° East 492 566 41,000  Level Kansas City Center
Mon 05:04:52 PM 38.1153 -95.4531 78° East 495 570 41,000  Level Kansas City Center
Mon 05:05:53 PM 38.1478 -95.2642 78° East 494 568 41,000  Level Kansas City Center
Mon 05:06:56 PM 38.1761 -95.1003 78° East 496 571 41,000  Level Kansas City Center
Mon 05:07:58 PM 38.2061 -94.9122 78° East 491 565 41,000  Level Kansas City Center
Mon 05:08:59 PM 38.2325 -94.7439 79° East 498 573 41,000  Level Kansas City Center
Mon 05:10:02 PM 38.2636 -94.5522 78° East 500 575 41,000  Level Kansas City Center
Mon 05:11:03 PM 38.3086 -94.3944 70° East 502 578 41,000  Level Kansas City Center
Mon 05:12:07 PM 38.3725 -94.2211 65° Northeast 492 566 41,000  Level Kansas City Center
Mon 05:13:08 PM 38.4286 -94.0658 65° Northeast 484 557 41,000  Level Kansas City Center
Mon 05:14:09 PM 38.4889 -93.9022 65° Northeast 480 552 41,000  Level Kansas City Center
Mon 05:15:13 PM 38.5406 -93.7553 66° East 480 552 41,000  Level Kansas City Center
Mon 05:16:13 PM 38.5975 -93.5992 65° Northeast 480 552 41,000  Level Kansas City Center
Mon 05:17:17 PM 38.6533 -93.4433 65° Northeast 479 551 41,000  Level Kansas City Center
Mon 05:18:18 PM 38.7094 -93.2864 65° Northeast 480 552 41,000  Level Kansas City Center
Mon 05:19:19 PM 38.7764 -93.0972 66° East 482 555 41,000  Level Kansas City Center
Mon 05:20:22 PM 38.8317 -92.9403 66° East 482 555 41,000  Level Kansas City Center
Mon 05:21:23 PM 38.8883 -92.7800 66° East 485 558 41,000  Level Kansas City Center
Mon 05:22:26 PM 38.9433 -92.6228 66° East 483 556 41,000  Level Kansas City Center
Mon 05:23:27 PM 38.9975 -92.4661 66° East 479 551 41,000  Level Kansas City Center
Mon 05:24:31 PM 39.0514 -92.3117 66° East 476 548 41,000  Level Kansas City Center
Mon 05:25:32 PM 39.1056 -92.1556 66° East 475 547 41,000  Level Kansas City Center
Mon 05:26:33 PM 39.1558 -91.9933 68° East 479 551 41,000  Level Kansas City Center
Mon 05:27:37 PM 39.2136 -91.8014 69° East 478 550 41,000  Level Kansas City Center
Mon 05:28:38 PM 39.2561 -91.6642 68° East 478 550 41,000  Level Kansas City Center
Mon 05:29:39 PM 39.3061 -91.5025 68° East 482 555 41,000  Level Kansas City Center
Mon 05:30:40 PM 39.3544 -91.3436 68° East 479 551 41,000  Level Kansas City Center
Mon 05:31:44 PM 39.4111 -91.1503 69° East 478 550 41,000  Level Kansas City Center
Mon 05:32:46 PM 39.4592 -90.9900 69° East 477 549 41,000  Level Kansas City Center
Mon 05:33:48 PM 39.5081 -90.8264 69° East 482 555 41,000  Level Kansas City Center
Mon 05:34:49 PM 39.5556 -90.6642 69° East 482 555 41,000  Level Kansas City Center
Mon 05:35:53 PM 39.6025 -90.5036 69° East 478 550 41,000  Level Kansas City Center
Mon 05:36:53 PM 39.6492 -90.3433 69° East 476 548 41,000  Level Kansas City Center
Mon 05:37:56 PM 39.6947 -90.1833 70° East 473 544 41,000  Level Kansas City Center
Mon 05:38:57 PM 39.7467 -90.0047 69° East 471 542 41,000  Level Kansas City Center
Mon 05:39:58 PM 39.7919 -89.8450 70° East 471 542 41,000  Level Kansas City Center
Mon 05:41:02 PM 39.8367 -89.6850 70° East 472 543 41,000  Level Kansas City Center
Mon 05:42:03 PM 39.8817 -89.4889 73° East 474 545 41,000  Level Kansas City Center
Mon 05:42:35 PM 39.8961 -89.4239 74° East 477 549 41,000  Level Chicago Center
Mon 05:43:04 PM 39.9186 -89.3239 74° East 477 549 41,000  Level Kansas City Center
Mon 05:44:07 PM 39.9547 -89.1581 74° East 477 549 41,000  Level Kansas City Center
Mon 05:45:07 PM 39.9917 -88.9931 74° East 477 549 41,000  Level Kansas City Center
Mon 05:46:12 PM 40.0267 -88.8278 74° East 476 548 41,000  Level Kansas City Center
Mon 05:47:12 PM 40.0622 -88.6622 74° East 475 547 41,000  Level Kansas City Center
Mon 05:48:14 PM 40.1053 -88.4639 74° East 475 547 41,000  Level Kansas City Center
Mon 05:49:15 PM 40.1433 -88.3006 73° East 473 544 41,000  Level Kansas City Center
Mon 05:49:49 PM 40.1658 -88.2014 73° East 474 545 41,000  Level Chicago Center
Mon 05:50:51 PM 40.2003 -88.0467 74° East 472 543 41,000  Level Chicago Center
Mon 05:51:53 PM 40.2378 -87.8847 73° East 470 541 41,000  Level Chicago Center
Mon 05:52:09 PM 40.2508 -87.8178 76° East 471 542 41,000  Level Indianapolis Center
Mon 05:53:11 PM 40.2878 -87.6542 73° East 469 540 41,000  Level Indianapolis Center
Mon 05:53:57 PM 40.3175 -87.5278 73° East 468 539 41,000  Level Chicago Center
Mon 05:54:59 PM 40.3533 -87.3658 74° East 469 540 41,000  Level Chicago Center
Mon 05:56:01 PM 40.3881 -87.2056 74° East 463 533 41,000  Level Chicago Center
Mon 05:57:03 PM 40.4233 -87.0439 74° East 465 535 41,000  Level Chicago Center
Mon 05:58:05 PM 40.4644 -86.8511 74° East 461 531 41,000  Level Chicago Center
Mon 05:59:07 PM 40.4964 -86.7022 74° East 458 527 41,000  Level Chicago Center
Mon 06:00:09 PM 40.5300 -86.5439 74° East 454 522 41,000  Level Chicago Center
Mon 06:01:11 PM 40.5631 -86.3828 75° East 457 526 41,000  Level Chicago Center
Mon 06:02:13 PM 40.6281 -86.2036 64° Northeast 462 532 41,000  Level Chicago Center
Mon 06:03:15 PM 40.6914 -86.0608 60° Northeast 454 522 41,000  Level Chicago Center
Mon 06:04:17 PM 40.7547 -85.9178 60° Northeast 455 524 41,000  Level Chicago Center
Mon 06:05:19 PM 40.8186 -85.7761 59° Northeast 453 521 41,000  Level Chicago Center
Mon 06:06:21 PM 40.8808 -85.6308 60° Northeast 457 526 41,000  Level Chicago Center
Mon 06:07:24 PM 40.9442 -85.4883 59° Northeast 454 522 41,000  Level Chicago Center
Mon 06:08:26 PM 40.9831 -85.2953 75° East 465 535 41,000  Level Chicago Center
Mon 06:09:28 PM 41.0056 -85.1325 80° East 459 528 41,000  Level Chicago Center
Mon 06:10:30 PM 41.0264 -84.9667 80° East 461 531 41,000  Level Chicago Center
Mon 06:11:32 PM 41.0486 -84.7983 80° East 465 535 41,000  Level Chicago Center
Mon 06:12:34 PM 41.0694 -84.6319 81° East 466 536 41,000  Level Chicago Center
Mon 06:13:01 PM 41.0853 -84.5231 79° East 462 532 41,000  Level Cleveland Center
Mon 06:14:01 PM 41.1056 -84.3533 81° East 462 532 41,000  Level Cleveland Center
Mon 06:14:38 PM 41.1161 -84.2611 81° East 471 542 41,000  Level Chicago Center
Mon 06:15:40 PM 41.1364 -84.0928 81° East 469 540 41,000  Level Chicago Center
Mon 06:16:01 PM 41.1475 -84.0136 79° East 462 532 41,000  Level Cleveland Center
Mon 06:17:01 PM 41.1650 -83.8436 82° East 461 531 41,000  Level Cleveland Center
Mon 06:18:01 PM 41.1864 -83.6761 80° East 461 531 41,000  Level Cleveland Center
Mon 06:19:01 PM 41.2075 -83.5061 81° East 466 536 41,000  Level Cleveland Center
Mon 06:20:01 PM 41.2264 -83.3331 82° East 461 531 41,000  Level Cleveland Center
Mon 06:21:01 PM 41.2422 -83.1956 81° East 466 536 41,000  Level Cleveland Center
Mon 06:22:01 PM 41.2650 -83.0114 81° East 460 529 41,000  Level Cleveland Center
Mon 06:23:01 PM 41.2831 -82.8406 82° East 466 536 41,000  Level Cleveland Center
Mon 06:24:01 PM 41.3033 -82.6533 82° East 466 536 41,000  Level Cleveland Center
Mon 06:25:01 PM 41.3231 -82.4825 81° East 466 536 41,000  Level Cleveland Center
Mon 06:26:01 PM 41.3403 -82.3089 82° East 467 537 41,000  Level Cleveland Center
Mon 06:27:01 PM 41.3656 -82.1408 79° East 462 532 41,000  Level Cleveland Center
Mon 06:28:01 PM 41.4094 -81.9786 70° East 462 532 41,000  Level Cleveland Center
Mon 06:29:01 PM 41.4572 -81.8161 69° East 468 539 41,000  Level Cleveland Center
Mon 06:30:01 PM 41.5025 -81.6672 68° East 468 539 41,000  Level Cleveland Center
Mon 06:31:01 PM 41.5456 -81.5042 71° East 468 539 41,000  Level Cleveland Center
Mon 06:32:01 PM 41.5928 -81.3411 69° East 468 539 41,000  Level Cleveland Center
Mon 06:33:01 PM 41.6375 -81.1750 70° East 468 539 41,000  Level Cleveland Center
Mon 06:34:01 PM 41.6883 -80.9947 69° East 468 539 41,000  Level Cleveland Center
Mon 06:35:01 PM 41.7344 -80.8281 70° East 468 539 41,000  Level Cleveland Center
Mon 06:36:01 PM 41.7806 -80.6611 70° East 473 544 41,000  Level Cleveland Center
Mon 06:37:01 PM 41.8267 -80.4939 70° East 468 539 41,000  Level Cleveland Center
Mon 06:38:01 PM 41.8722 -80.3294 70° East 468 539 41,000  Level Cleveland Center
Mon 06:39:01 PM 41.9156 -80.1619 71° East 468 539 41,000  Level Cleveland Center
Mon 06:40:01 PM 41.9606 -79.9911 70° East 474 545 41,000  Level Cleveland Center
Mon 06:41:01 PM 42.0014 -79.8400 70° East 474 545 41,000  Level Cleveland Center
Mon 06:42:01 PM 42.0461 -79.6717 70° East 474 545 41,000  Level Cleveland Center
Mon 06:43:01 PM 42.0903 -79.5003 71° East 474 545 41,000  Level Cleveland Center
Mon 06:44:01 PM 42.1344 -79.3317 70° East 469 540 41,000  Level Cleveland Center
Mon 06:45:01 PM 42.1783 -79.1597 71° East 469 540 41,000  Level Cleveland Center
Mon 06:46:01 PM 42.2053 -78.9881 78° East 469 540 41,000  Level Cleveland Center
Mon 06:47:01 PM 42.2297 -78.8108 79° East 469 540 41,000  Level Cleveland Center
Mon 06:48:01 PM 42.2519 -78.6336 80° East 474 545 41,000  Level Cleveland Center
Mon 06:49:01 PM 42.2739 -78.4561 80° East 474 545 41,000  Level Cleveland Center
Mon 06:50:01 PM 42.2992 -78.2586 80° East 479 551 41,000  Level Cleveland Center
Mon 06:51:01 PM 42.3206 -78.0811 81° East 484 557 41,000  Level Cleveland Center
Mon 06:52:01 PM 42.3394 -77.9033 82° East 484 557 41,000  Level Cleveland Center
Mon 06:53:01 PM 42.3622 -77.7253 80° East 484 557 41,000  Level Cleveland Center
Mon 06:54:01 PM 42.3828 -77.5444 81° East 484 557 41,000  Level Cleveland Center
Mon 06:55:01 PM 42.4028 -77.3661 81° East 484 557 41,000  Level Cleveland Center
Mon 06:56:51 PM 42.4358 -77.0544 82° East 492 566 41,000  Level Boston Center
Mon 06:57:51 PM 42.4575 -76.8758 81° East 492 566 41,000  Level Boston Center
Mon 06:58:51 PM 42.4769 -76.6942 82° East 492 566 41,000  Level Boston Center
Mon 07:00:03 PM 42.4939 -76.5150 83° East 480 552 41,000  Level Boston Center
Mon 07:01:03 PM 42.5183 -76.2997 81° East 480 552 41,000  Level Boston Center
Mon 07:02:03 PM 42.5367 -76.1175 82° East 480 552 41,000  Level Boston Center
Mon 07:03:03 PM 42.5550 -75.9383 82° East 480 552 41,000  Level Boston Center
Mon 07:04:03 PM 42.5731 -75.7558 82° East 480 552 41,000  Level Boston Center
Mon 07:05:03 PM 42.5886 -75.5706 83° East 480 552 41,000  Level Boston Center
Mon 07:06:03 PM 42.6103 -75.3856 81° East 485 558 41,000  Level Boston Center
Mon 07:07:03 PM 42.6253 -75.2056 83° East 485 558 41,000  Level Boston Center
Mon 07:08:03 PM 42.6419 -75.0228 83° East 485 558 41,000  Level Boston Center
Mon 07:09:03 PM 42.6586 -74.8400 83° East 485 558 41,000  Level Boston Center
Mon 07:10:03 PM 42.6747 -74.6597 83° East 480 552 41,000  Level Boston Center
Mon 07:11:03 PM 42.6886 -74.4794 84° East 480 552 41,000  Level Boston Center
Mon 07:12:03 PM 42.7269 -74.3028 73° East 480 552 41,000  Level Boston Center
Mon 07:13:03 PM 42.7714 -74.1258 71° East 486 559 41,000  Level Boston Center
Mon 07:14:03 PM 42.8133 -73.9514 72° East 491 565 41,000  Level Boston Center
Mon 07:15:03 PM 42.8572 -73.7742 71° East 491 565 41,000  Level Boston Center
Mon 07:16:03 PM 42.8967 -73.5992 73° East 486 559 41,000  Level Boston Center
Mon 07:17:03 PM 42.9422 -73.4214 71° East 486 559 41,000 -300 Level Boston Center
Mon 07:18:03 PM 42.9875 -73.2433 71° East 486 559 40,400 -1,100 Descending Boston Center
Mon 07:19:03 PM 43.0300 -73.0706 71° East 486 559 38,800 -1,700 Descending Boston Center
Mon 07:20:03 PM 43.0728 -72.8750 73° East 476 548 37,000 -1,950 Descending Boston Center
Mon 07:21:03 PM 43.1150 -72.6933 72° East 488 562 34,900 -3,000 Descending Boston Center
Mon 07:22:03 PM 43.1569 -72.5225 71° East 501 577 31,000 -3,250 Descending Boston Center
Mon 07:23:03 PM 43.1964 -72.3433 73° East 506 582 28,400 -2,450 Descending Boston Center
Mon 07:24:03 PM 43.2336 -72.1836 72° East 467 537 26,100 -2,250 Descending Boston Center
Mon 07:25:03 PM 43.2667 -72.0325 73° East 432 497 23,900 -2,200 Descending Boston Center
Mon 07:26:03 PM 43.3036 -71.8808 71° East 415 478 21,700 -2,150 Descending Boston Center
Mon 07:27:03 PM 43.3339 -71.7408 73° East 402 463 19,600 -2,000 Descending Boston Center
Mon 07:28:03 PM 43.3622 -71.6061 74° East 374 430 17,700 -2,100 Descending Boston Center
Mon 07:29:03 PM 43.3944 -71.4628 73° East 362 417 15,400 -2,050 Descending Boston Center
Mon 07:30:03 PM 43.4225 -71.3367 73° East 355 409 13,600 -1,650 Descending Boston Center
Mon 07:31:03 PM 43.4483 -71.2161 74° East 335 386 12,100 -1,300 Descending Boston Center
Mon 07:32:03 PM 43.4847 -71.1036 66° East 323 372 11,000 -550 Descending Boston Center
Mon 07:33:03 PM 43.5147 -71.0028 68° East 302 348 11,000 -1,100 Level Boston Center
Mon 07:34:03 PM 43.5447 -70.9075 66° East 270 311 8,800 -2,150 Descending Boston Center
Mon 07:35:03 PM 43.5725 -70.8181 67° East 256 295 6,700 -2,200 Descending Boston Center
Mon 07:36:03 PM 43.6006 -70.7369 64° Northeast 256 295 4,400 -2,200 Descending Boston Center
Mon 07:37:03 PM 43.6283 -70.6444 67° East 244 281 2,300 -1,250 Descending Boston Center
Mon 07:38:03 PM 43.6481 -70.5778 68° East 220 253 1,900 -250 Descending Boston Center
Mon 07:39:03 PM 43.6617 -70.5086 75° East 174 200 1,800 -50 Descending Boston Center
Mon 07:40:03 PM 43.6544 -70.4514 100° East 157 181 1,800 -300 Level Boston Center
Mon 07:41:03 PM 43.6514 -70.4028 95° East 131 151 1,200 -550 Descending Boston Center
Mon 07:42:03 PM 43.6489 -70.3714 96° East 98 113 700 11,400 Descending Boston Center
Mon 07:43:03 PM 43.6481 -70.3283 92° East 93 107 24,000 11,650 Climbing Boston Center
Mon 07:44:03 PM 43.6475 -70.2967 91° East 93 107 24,000  Level Boston Center
Mon 07:46:00 PM 43.6333 -70.3000 101° East  Level FlightAware Approximate
Mon 07:53:00 PM 43.6456 -70.3086 101° East  Level Estimated
Mon 07:54:00 PM 43.6456 -70.3086 101° East  Level Estimated
Mon 07:55:00 PM 43.6456 -70.3086 101° East  Level Estimated
Mon 07:56:00 PM 43.6456 -70.3086 101° East  Level Estimated
Mon 07:57:00 PM 43.6456 -70.3086 101° East  Level Estimated
Mon 07:58:00 PM 43.6456 -70.3086 101° East  Level Estimated

Login

Don't have an account? Register now (free) for customized features, flight alerts, and more!